sensor_id;sensor_type;location;lat;lon;timestamp;P1;durP1;ratioP1;P2;durP2;ratioP2
10902;SDS011;5504;47.312;11.060;2022-11-09T00:00:35;2.23;;;2.00;;
10902;SDS011;5504;47.312;11.060;2022-11-09T00:03:00;1.77;;;1.67;;
10902;SDS011;5504;47.312;11.060;2022-11-09T00:05:26;1.70;;;1.60;;
10902;SDS011;5504;47.312;11.060;2022-11-09T00:07:52;4.23;;;1.90;;
10902;SDS011;5504;47.312;11.060;2022-11-09T00:10:17;1.70;;;1.60;;
10902;SDS011;5504;47.312;11.060;2022-11-09T00:12:43;2.70;;;1.60;;
10902;SDS011;5504;47.312;11.060;2022-11-09T00:15:09;2.40;;;2.00;;
10902;SDS011;5504;47.312;11.060;2022-11-09T00:17:35;2.33;;;2.03;;
10902;SDS011;5504;47.312;11.060;2022-11-09T00:20:01;2.80;;;1.83;;
10902;SDS011;5504;47.312;11.060;2022-11-09T00:22:26;2.37;;;2.00;;
10902;SDS011;5504;47.312;11.060;2022-11-09T00:24:52;2.13;;;1.90;;
10902;SDS011;5504;47.312;11.060;2022-11-09T00:27:18;2.63;;;1.90;;
10902;SDS011;5504;47.312;11.060;2022-11-09T00:29:43;2.33;;;1.70;;
10902;SDS011;5504;47.312;11.060;2022-11-09T00:32:09;1.90;;;1.70;;
10902;SDS011;5504;47.312;11.060;2022-11-09T00:34:35;2.13;;;1.60;;
10902;SDS011;5504;47.312;11.060;2022-11-09T00:37:01;1.90;;;1.60;;
10902;SDS011;5504;47.312;11.060;2022-11-09T00:39:26;2.00;;;1.80;;
10902;SDS011;5504;47.312;11.060;2022-11-09T00:41:52;2.33;;;2.00;;
10902;SDS011;5504;47.312;11.060;2022-11-09T00:44:18;2.50;;;1.90;;
10902;SDS011;5504;47.312;11.060;2022-11-09T00:46:43;2.87;;;1.70;;
10902;SDS011;5504;47.312;11.060;2022-11-09T00:49:09;1.90;;;1.70;;
10902;SDS011;5504;47.312;11.060;2022-11-09T00:51:35;2.37;;;1.80;;
10902;SDS011;5504;47.312;11.060;2022-11-09T00:54:00;2.30;;;1.70;;
10902;SDS011;5504;47.312;11.060;2022-11-09T00:56:26;1.90;;;1.70;;
10902;SDS011;5504;47.312;11.060;2022-11-09T00:58:52;2.87;;;1.67;;
10902;SDS011;5504;47.312;11.060;2022-11-09T01:01:22;2.30;;;1.73;;
10902;SDS011;5504;47.312;11.060;2022-11-09T01:03:48;2.03;;;1.83;;
10902;SDS011;5504;47.312;11.060;2022-11-09T01:06:18;2.07;;;1.70;;
10902;SDS011;5504;47.312;11.060;2022-11-09T01:08:45;2.20;;;1.90;;
10902;SDS011;5504;47.312;11.060;2022-11-09T01:11:12;2.40;;;1.90;;
10902;SDS011;5504;47.312;11.060;2022-11-09T01:13:38;2.30;;;1.80;;
10902;SDS011;5504;47.312;11.060;2022-11-09T01:16:05;2.47;;;2.10;;
10902;SDS011;5504;47.312;11.060;2022-11-09T01:18:43;2.70;;;2.20;;
10902;SDS011;5504;47.312;11.060;2022-11-09T01:21:09;2.90;;;2.20;;
10902;SDS011;5504;47.312;11.060;2022-11-09T01:23:36;2.83;;;2.00;;
10902;SDS011;5504;47.312;11.060;2022-11-09T01:26:06;2.10;;;1.90;;
10902;SDS011;5504;47.312;11.060;2022-11-09T01:28:33;2.60;;;1.90;;
10902;SDS011;5504;47.312;11.060;2022-11-09T01:31:00;2.37;;;2.17;;
10902;SDS011;5504;47.312;11.060;2022-11-09T01:33:30;2.67;;;2.07;;
10902;SDS011;5504;47.312;11.060;2022-11-09T01:36:03;3.13;;;2.37;;
10902;SDS011;5504;47.312;11.060;2022-11-09T01:38:34;2.43;;;2.10;;
10902;SDS011;5504;47.312;11.060;2022-11-09T01:41:01;3.00;;;2.00;;
10902;SDS011;5504;47.312;11.060;2022-11-09T01:43:28;3.50;;;2.60;;
10902;SDS011;5504;47.312;11.060;2022-11-09T01:48:22;4.37;;;2.03;;
10902;SDS011;5504;47.312;11.060;2022-11-09T01:53:52;1.70;;;1.60;;
10902;SDS011;5504;47.312;11.060;2022-11-09T01:56:23;2.37;;;1.90;;
10902;SDS011;5504;47.312;11.060;2022-11-09T01:58:54;3.67;;;2.20;;
10902;SDS011;5504;47.312;11.060;2022-11-09T02:01:23;2.67;;;2.10;;
10902;SDS011;5504;47.312;11.060;2022-11-09T02:04:11;2.83;;;1.90;;
10902;SDS011;5504;47.312;11.060;2022-11-09T02:06:44;2.73;;;1.80;;
10902;SDS011;5504;47.312;11.060;2022-11-09T02:12:05;1.77;;;1.67;;
10902;SDS011;5504;47.312;11.060;2022-11-09T02:14:32;3.10;;;1.87;;
10902;SDS011;5504;47.312;11.060;2022-11-09T02:16:59;2.33;;;1.80;;
10902;SDS011;5504;47.312;11.060;2022-11-09T02:19:25;2.27;;;1.73;;
10902;SDS011;5504;47.312;11.060;2022-11-09T02:21:51;1.80;;;1.60;;
10902;SDS011;5504;47.312;11.060;2022-11-09T02:24:17;1.67;;;1.57;;
10902;SDS011;5504;47.312;11.060;2022-11-09T02:26:45;2.87;;;1.50;;
10902;SDS011;5504;47.312;11.060;2022-11-09T02:29:15;2.10;;;1.77;;
10902;SDS011;5504;47.312;11.060;2022-11-09T02:31:54;1.77;;;1.67;;
10902;SDS011;5504;47.312;11.060;2022-11-09T02:34:22;3.70;;;2.03;;
10902;SDS011;5504;47.312;11.060;2022-11-09T02:36:49;1.70;;;1.60;;
10902;SDS011;5504;47.312;11.060;2022-11-09T02:39:15;2.00;;;1.80;;
10902;SDS011;5504;47.312;11.060;2022-11-09T02:41:53;1.97;;;1.70;;
10902;SDS011;5504;47.312;11.060;2022-11-09T02:44:23;1.77;;;1.67;;
10902;SDS011;5504;47.312;11.060;2022-11-09T02:46:50;2.27;;;2.07;;
10902;SDS011;5504;47.312;11.060;2022-11-09T02:49:16;2.67;;;1.90;;
10902;SDS011;5504;47.312;11.060;2022-11-09T02:51:41;3.10;;;2.10;;
10902;SDS011;5504;47.312;11.060;2022-11-09T02:54:07;2.53;;;1.80;;
10902;SDS011;5504;47.312;11.060;2022-11-09T02:56:33;2.13;;;1.73;;
10902;SDS011;5504;47.312;11.060;2022-11-09T02:58:58;2.53;;;1.70;;
10902;SDS011;5504;47.312;11.060;2022-11-09T03:01:24;2.50;;;1.67;;
10902;SDS011;5504;47.312;11.060;2022-11-09T03:03:50;3.07;;;1.60;;
10902;SDS011;5504;47.312;11.060;2022-11-09T03:06:16;1.90;;;1.70;;
10902;SDS011;5504;47.312;11.060;2022-11-09T03:08:42;2.10;;;1.97;;
10902;SDS011;5504;47.312;11.060;2022-11-09T03:11:07;1.97;;;1.60;;
10902;SDS011;5504;47.312;11.060;2022-11-09T03:13:33;1.43;;;1.33;;
10902;SDS011;5504;47.312;11.060;2022-11-09T03:16:02;2.43;;;1.40;;
10902;SDS011;5504;47.312;11.060;2022-11-09T03:18:29;2.60;;;1.90;;
10902;SDS011;5504;47.312;11.060;2022-11-09T03:20:59;1.87;;;1.67;;
10902;SDS011;5504;47.312;11.060;2022-11-09T03:23:26;2.10;;;1.80;;
10902;SDS011;5504;47.312;11.060;2022-11-09T03:25:52;3.07;;;1.60;;
10902;SDS011;5504;47.312;11.060;2022-11-09T03:28:18;2.30;;;1.60;;
10902;SDS011;5504;47.312;11.060;2022-11-09T03:30:43;2.23;;;1.70;;
10902;SDS011;5504;47.312;11.060;2022-11-09T03:33:09;2.40;;;1.60;;
10902;SDS011;5504;47.312;11.060;2022-11-09T03:35:36;1.53;;;1.43;;
10902;SDS011;5504;47.312;11.060;2022-11-09T03:38:02;2.57;;;1.70;;
10902;SDS011;5504;47.312;11.060;2022-11-09T03:40:28;1.80;;;1.60;;
10902;SDS011;5504;47.312;11.060;2022-11-09T03:42:54;2.37;;;1.60;;
10902;SDS011;5504;47.312;11.060;2022-11-09T03:45:20;2.10;;;1.90;;
10902;SDS011;5504;47.312;11.060;2022-11-09T03:47:46;1.80;;;1.70;;
10902;SDS011;5504;47.312;11.060;2022-11-09T03:50:13;2.10;;;1.73;;
10902;SDS011;5504;47.312;11.060;2022-11-09T03:52:39;2.17;;;1.80;;
10902;SDS011;5504;47.312;11.060;2022-11-09T03:55:09;2.10;;;1.63;;
10902;SDS011;5504;47.312;11.060;2022-11-09T03:57:34;2.80;;;1.80;;
10902;SDS011;5504;47.312;11.060;2022-11-09T04:00:00;2.20;;;2.00;;
10902;SDS011;5504;47.312;11.060;2022-11-09T04:02:26;2.87;;;1.60;;
10902;SDS011;5504;47.312;11.060;2022-11-09T04:04:51;2.73;;;1.70;;
10902;SDS011;5504;47.312;11.060;2022-11-09T04:07:17;2.90;;;1.77;;
10902;SDS011;5504;47.312;11.060;2022-11-09T04:09:43;3.13;;;1.63;;
10902;SDS011;5504;47.312;11.060;2022-11-09T04:12:08;3.40;;;1.77;;
10902;SDS011;5504;47.312;11.060;2022-11-09T04:14:34;1.90;;;1.67;;
10902;SDS011;5504;47.312;11.060;2022-11-09T04:17:00;1.83;;;1.60;;
10902;SDS011;5504;47.312;11.060;2022-11-09T04:19:25;2.77;;;1.67;;
10902;SDS011;5504;47.312;11.060;2022-11-09T04:21:51;1.80;;;1.53;;
10902;SDS011;5504;47.312;11.060;2022-11-09T04:24:17;1.50;;;1.40;;
10902;SDS011;5504;47.312;11.060;2022-11-09T04:26:42;2.07;;;1.70;;
10902;SDS011;5504;47.312;11.060;2022-11-09T04:29:09;1.80;;;1.40;;
10902;SDS011;5504;47.312;11.060;2022-11-09T04:31:34;2.23;;;1.40;;
10902;SDS011;5504;47.312;11.060;2022-11-09T04:34:00;2.10;;;1.40;;
10902;SDS011;5504;47.312;11.060;2022-11-09T04:36:26;2.57;;;1.27;;
10902;SDS011;5504;47.312;11.060;2022-11-09T04:38:51;1.70;;;1.33;;
10902;SDS011;5504;47.312;11.060;2022-11-09T04:41:17;3.90;;;1.63;;
10902;SDS011;5504;47.312;11.060;2022-11-09T04:43:43;2.00;;;1.80;;
10902;SDS011;5504;47.312;11.060;2022-11-09T04:46:08;2.13;;;1.63;;
10902;SDS011;5504;47.312;11.060;2022-11-09T04:48:34;2.93;;;1.70;;
10902;SDS011;5504;47.312;11.060;2022-11-09T04:51:00;1.70;;;1.50;;
10902;SDS011;5504;47.312;11.060;2022-11-09T04:53:28;2.57;;;1.80;;
10902;SDS011;5504;47.312;11.060;2022-11-09T04:55:53;2.07;;;1.73;;
10902;SDS011;5504;47.312;11.060;2022-11-09T04:58:19;1.70;;;1.60;;
10902;SDS011;5504;47.312;11.060;2022-11-09T05:00:45;2.23;;;1.60;;
10902;SDS011;5504;47.312;11.060;2022-11-09T05:03:10;1.67;;;1.57;;
10902;SDS011;5504;47.312;11.060;2022-11-09T05:05:36;1.67;;;1.47;;
10902;SDS011;5504;47.312;11.060;2022-11-09T05:08:04;1.77;;;1.60;;
10902;SDS011;5504;47.312;11.060;2022-11-09T05:10:30;2.90;;;1.50;;
10902;SDS011;5504;47.312;11.060;2022-11-09T05:13:00;2.33;;;1.57;;
10902;SDS011;5504;47.312;11.060;2022-11-09T05:15:30;3.93;;;1.90;;
10902;SDS011;5504;47.312;11.060;2022-11-09T05:17:56;2.83;;;1.60;;
10902;SDS011;5504;47.312;11.060;2022-11-09T05:20:22;1.97;;;1.60;;
10902;SDS011;5504;47.312;11.060;2022-11-09T05:22:48;3.67;;;1.50;;
10902;SDS011;5504;47.312;11.060;2022-11-09T05:25:32;2.13;;;1.70;;
10902;SDS011;5504;47.312;11.060;2022-11-09T05:27:58;1.93;;;1.50;;
10902;SDS011;5504;47.312;11.060;2022-11-09T05:30:24;1.80;;;1.57;;
10902;SDS011;5504;47.312;11.060;2022-11-09T05:32:49;2.73;;;1.70;;
10902;SDS011;5504;47.312;11.060;2022-11-09T05:35:15;1.87;;;1.60;;
10902;SDS011;5504;47.312;11.060;2022-11-09T05:37:41;2.73;;;1.70;;
10902;SDS011;5504;47.312;11.060;2022-11-09T05:40:07;2.17;;;1.60;;
10902;SDS011;5504;47.312;11.060;2022-11-09T05:42:33;3.10;;;1.90;;
10902;SDS011;5504;47.312;11.060;2022-11-09T05:45:02;1.60;;;1.50;;
10902;SDS011;5504;47.312;11.060;2022-11-09T05:47:28;2.13;;;1.40;;
10902;SDS011;5504;47.312;11.060;2022-11-09T05:49:53;2.00;;;1.40;;
10902;SDS011;5504;47.312;11.060;2022-11-09T05:52:19;2.13;;;1.77;;
10902;SDS011;5504;47.312;11.060;2022-11-09T05:54:45;2.10;;;1.70;;
10902;SDS011;5504;47.312;11.060;2022-11-09T05:57:10;2.70;;;2.30;;
10902;SDS011;5504;47.312;11.060;2022-11-09T05:59:36;3.17;;;2.80;;
10902;SDS011;5504;47.312;11.060;2022-11-09T06:02:02;1.80;;;1.70;;
10902;SDS011;5504;47.312;11.060;2022-11-09T06:04:28;2.00;;;1.80;;
10902;SDS011;5504;47.312;11.060;2022-11-09T06:06:53;2.90;;;2.60;;
10902;SDS011;5504;47.312;11.060;2022-11-09T06:09:19;2.97;;;1.90;;
10902;SDS011;5504;47.312;11.060;2022-11-09T06:11:44;10.60;;;9.50;;
10902;SDS011;5504;47.312;11.060;2022-11-09T06:14:10;11.77;;;7.57;;
10902;SDS011;5504;47.312;11.060;2022-11-09T06:16:36;4.67;;;2.40;;
10902;SDS011;5504;47.312;11.060;2022-11-09T06:19:01;2.37;;;2.17;;
10902;SDS011;5504;47.312;11.060;2022-11-09T06:21:27;4.30;;;2.33;;
10902;SDS011;5504;47.312;11.060;2022-11-09T06:23:53;4.50;;;2.77;;
10902;SDS011;5504;47.312;11.060;2022-11-09T06:26:18;3.17;;;2.83;;
10902;SDS011;5504;47.312;11.060;2022-11-09T06:28:44;3.43;;;2.87;;
10902;SDS011;5504;47.312;11.060;2022-11-09T06:31:13;3.63;;;3.00;;
10902;SDS011;5504;47.312;11.060;2022-11-09T06:33:40;3.37;;;2.43;;
10902;SDS011;5504;47.312;11.060;2022-11-09T06:36:06;2.33;;;2.00;;
10902;SDS011;5504;47.312;11.060;2022-11-09T06:38:33;2.93;;;2.07;;
10902;SDS011;5504;47.312;11.060;2022-11-09T06:40:59;3.30;;;1.87;;
10902;SDS011;5504;47.312;11.060;2022-11-09T06:43:25;2.90;;;2.20;;
10902;SDS011;5504;47.312;11.060;2022-11-09T06:45:51;2.93;;;1.93;;
10902;SDS011;5504;47.312;11.060;2022-11-09T06:48:17;2.80;;;1.90;;
10902;SDS011;5504;47.312;11.060;2022-11-09T06:50:44;3.43;;;2.90;;
10902;SDS011;5504;47.312;11.060;2022-11-09T06:53:11;6.07;;;5.07;;
10902;SDS011;5504;47.312;11.060;2022-11-09T06:55:38;22.93;;;14.73;;
10902;SDS011;5504;47.312;11.060;2022-11-09T06:58:11;13.03;;;8.50;;
10902;SDS011;5504;47.312;11.060;2022-11-09T07:00:40;7.10;;;4.60;;
10902;SDS011;5504;47.312;11.060;2022-11-09T07:03:06;10.57;;;7.67;;
10902;SDS011;5504;47.312;11.060;2022-11-09T07:05:36;16.17;;;11.43;;
10902;SDS011;5504;47.312;11.060;2022-11-09T07:08:03;8.63;;;5.60;;
10902;SDS011;5504;47.312;11.060;2022-11-09T07:10:29;6.63;;;4.23;;
10902;SDS011;5504;47.312;11.060;2022-11-09T07:12:58;4.10;;;3.10;;
10902;SDS011;5504;47.312;11.060;2022-11-09T07:15:24;4.27;;;3.27;;
10902;SDS011;5504;47.312;11.060;2022-11-09T07:17:50;3.93;;;3.30;;
10902;SDS011;5504;47.312;11.060;2022-11-09T07:20:15;4.67;;;3.53;;
10902;SDS011;5504;47.312;11.060;2022-11-09T07:22:41;8.27;;;6.70;;
10902;SDS011;5504;47.312;11.060;2022-11-09T07:25:08;8.37;;;6.97;;
10902;SDS011;5504;47.312;11.060;2022-11-09T07:27:35;10.30;;;9.20;;
10902;SDS011;5504;47.312;11.060;2022-11-09T07:30:01;9.73;;;7.73;;
10902;SDS011;5504;47.312;11.060;2022-11-09T07:32:28;14.63;;;9.63;;
10902;SDS011;5504;47.312;11.060;2022-11-09T07:34:56;12.37;;;9.47;;
10902;SDS011;5504;47.312;11.060;2022-11-09T07:37:22;7.40;;;4.93;;
10902;SDS011;5504;47.312;11.060;2022-11-09T07:39:47;4.93;;;4.00;;
10902;SDS011;5504;47.312;11.060;2022-11-09T07:42:13;6.70;;;3.90;;
10902;SDS011;5504;47.312;11.060;2022-11-09T07:44:39;5.83;;;3.20;;
10902;SDS011;5504;47.312;11.060;2022-11-09T07:47:04;3.93;;;3.20;;
10902;SDS011;5504;47.312;11.060;2022-11-09T07:49:30;6.97;;;3.60;;
10902;SDS011;5504;47.312;11.060;2022-11-09T07:51:56;5.33;;;3.50;;
10902;SDS011;5504;47.312;11.060;2022-11-09T07:54:22;5.60;;;3.10;;
10902;SDS011;5504;47.312;11.060;2022-11-09T07:56:49;5.40;;;3.90;;
10902;SDS011;5504;47.312;11.060;2022-11-09T07:59:15;6.10;;;4.37;;
10902;SDS011;5504;47.312;11.060;2022-11-09T08:01:41;7.07;;;5.30;;
10902;SDS011;5504;47.312;11.060;2022-11-09T08:04:06;10.83;;;9.43;;
10902;SDS011;5504;47.312;11.060;2022-11-09T08:06:32;7.43;;;5.90;;
10902;SDS011;5504;47.312;11.060;2022-11-09T08:08:58;9.17;;;7.20;;
10902;SDS011;5504;47.312;11.060;2022-11-09T08:11:25;6.97;;;4.70;;
10902;SDS011;5504;47.312;11.060;2022-11-09T08:13:51;5.70;;;4.00;;
10902;SDS011;5504;47.312;11.060;2022-11-09T08:16:17;7.70;;;4.10;;
10902;SDS011;5504;47.312;11.060;2022-11-09T08:18:43;6.87;;;4.10;;
10902;SDS011;5504;47.312;11.060;2022-11-09T08:21:08;5.87;;;4.53;;
10902;SDS011;5504;47.312;11.060;2022-11-09T08:23:34;8.07;;;3.87;;
10902;SDS011;5504;47.312;11.060;2022-11-09T08:26:03;4.30;;;3.70;;
10902;SDS011;5504;47.312;11.060;2022-11-09T08:28:30;6.93;;;4.70;;
10902;SDS011;5504;47.312;11.060;2022-11-09T08:30:57;5.10;;;4.60;;
10902;SDS011;5504;47.312;11.060;2022-11-09T08:33:25;7.73;;;5.60;;
10902;SDS011;5504;47.312;11.060;2022-11-09T08:35:52;7.97;;;5.70;;
10902;SDS011;5504;47.312;11.060;2022-11-09T08:38:18;6.97;;;4.70;;
10902;SDS011;5504;47.312;11.060;2022-11-09T08:40:44;7.40;;;4.50;;
10902;SDS011;5504;47.312;11.060;2022-11-09T08:43:09;12.70;;;9.43;;
10902;SDS011;5504;47.312;11.060;2022-11-09T08:45:36;12.50;;;9.20;;
10902;SDS011;5504;47.312;11.060;2022-11-09T08:48:03;10.17;;;7.53;;
10902;SDS011;5504;47.312;11.060;2022-11-09T08:50:30;7.50;;;5.90;;
10902;SDS011;5504;47.312;11.060;2022-11-09T08:52:57;7.53;;;5.77;;
10902;SDS011;5504;47.312;11.060;2022-11-09T08:55:23;7.10;;;5.70;;
10902;SDS011;5504;47.312;11.060;2022-11-09T08:57:51;8.33;;;5.23;;
10902;SDS011;5504;47.312;11.060;2022-11-09T09:00:18;8.73;;;5.13;;
10902;SDS011;5504;47.312;11.060;2022-11-09T09:02:44;7.33;;;5.37;;
10902;SDS011;5504;47.312;11.060;2022-11-09T09:05:10;7.20;;;5.37;;
10902;SDS011;5504;47.312;11.060;2022-11-09T09:07:35;8.93;;;5.60;;
10902;SDS011;5504;47.312;11.060;2022-11-09T09:10:01;7.77;;;5.30;;
10902;SDS011;5504;47.312;11.060;2022-11-09T09:12:28;9.83;;;6.07;;
10902;SDS011;5504;47.312;11.060;2022-11-09T09:14:54;8.00;;;5.40;;
10902;SDS011;5504;47.312;11.060;2022-11-09T09:17:20;7.73;;;4.87;;
10902;SDS011;5504;47.312;11.060;2022-11-09T09:19:46;6.10;;;3.83;;
10902;SDS011;5504;47.312;11.060;2022-11-09T09:22:11;4.93;;;3.43;;
10902;SDS011;5504;47.312;11.060;2022-11-09T09:24:37;5.30;;;3.57;;
10902;SDS011;5504;47.312;11.060;2022-11-09T09:27:02;5.67;;;4.13;;
10902;SDS011;5504;47.312;11.060;2022-11-09T09:29:29;5.50;;;3.33;;
10902;SDS011;5504;47.312;11.060;2022-11-09T09:31:56;3.83;;;3.23;;
10902;SDS011;5504;47.312;11.060;2022-11-09T09:34:22;6.60;;;4.30;;
10902;SDS011;5504;47.312;11.060;2022-11-09T09:36:47;4.70;;;3.70;;
10902;SDS011;5504;47.312;11.060;2022-11-09T09:39:15;8.40;;;3.77;;
10902;SDS011;5504;47.312;11.060;2022-11-09T09:44:28;4.80;;;3.03;;
10902;SDS011;5504;47.312;11.060;2022-11-09T09:52:54;6.37;;;3.83;;
10902;SDS011;5504;47.312;11.060;2022-11-09T09:55:46;5.17;;;3.07;;
10902;SDS011;5504;47.312;11.060;2022-11-09T09:58:19;4.63;;;3.07;;
10902;SDS011;5504;47.312;11.060;2022-11-09T10:00:57;3.70;;;2.27;;
10902;SDS011;5504;47.312;11.060;2022-11-09T10:03:29;2.70;;;2.50;;
10902;SDS011;5504;47.312;11.060;2022-11-09T10:08:33;6.93;;;4.20;;
10902;SDS011;5504;47.312;11.060;2022-11-09T10:17:10;6.93;;;3.33;;
10902;SDS011;5504;47.312;11.060;2022-11-09T10:19:43;3.50;;;2.70;;
10902;SDS011;5504;47.312;11.060;2022-11-09T10:25:13;2.57;;;2.37;;
10902;SDS011;5504;47.312;11.060;2022-11-09T10:27:50;6.23;;;5.63;;
10902;SDS011;5504;47.312;11.060;2022-11-09T10:30:19;4.77;;;3.20;;
10902;SDS011;5504;47.312;11.060;2022-11-09T10:32:47;5.50;;;2.90;;
10902;SDS011;5504;47.312;11.060;2022-11-09T10:35:17;4.10;;;3.27;;
10902;SDS011;5504;47.312;11.060;2022-11-09T10:37:54;3.80;;;2.73;;
10902;SDS011;5504;47.312;11.060;2022-11-09T10:43:10;6.43;;;4.70;;
10902;SDS011;5504;47.312;11.060;2022-11-09T10:45:39;6.00;;;4.23;;
10902;SDS011;5504;47.312;11.060;2022-11-09T10:48:07;6.70;;;3.83;;
10902;SDS011;5504;47.312;11.060;2022-11-09T10:50:38;5.90;;;3.40;;
10902;SDS011;5504;47.312;11.060;2022-11-09T10:55:53;6.97;;;3.50;;
10902;SDS011;5504;47.312;11.060;2022-11-09T11:01:05;6.80;;;4.80;;
10902;SDS011;5504;47.312;11.060;2022-11-09T11:03:50;6.37;;;3.50;;
10902;SDS011;5504;47.312;11.060;2022-11-09T11:08:47;3.97;;;2.80;;
10902;SDS011;5504;47.312;11.060;2022-11-09T11:13:49;4.47;;;2.63;;
10902;SDS011;5504;47.312;11.060;2022-11-09T11:16:28;3.67;;;2.60;;
10902;SDS011;5504;47.312;11.060;2022-11-09T11:18:57;4.37;;;2.60;;
10902;SDS011;5504;47.312;11.060;2022-11-09T11:21:23;2.83;;;2.20;;
10902;SDS011;5504;47.312;11.060;2022-11-09T11:32:46;2.03;;;1.83;;
10902;SDS011;5504;47.312;11.060;2022-11-09T11:35:13;3.33;;;1.90;;
10902;SDS011;5504;47.312;11.060;2022-11-09T11:40:52;2.77;;;1.87;;
10902;SDS011;5504;47.312;11.060;2022-11-09T11:46:42;2.77;;;1.87;;
10902;SDS011;5504;47.312;11.060;2022-11-09T11:57:05;3.10;;;1.80;;
10902;SDS011;5504;47.312;11.060;2022-11-09T11:59:53;5.17;;;1.70;;
10902;SDS011;5504;47.312;11.060;2022-11-09T12:16:10;2.20;;;1.80;;
10902;SDS011;5504;47.312;11.060;2022-11-09T12:18:48;4.23;;;2.33;;
10902;SDS011;5504;47.312;11.060;2022-11-09T12:21:38;4.70;;;2.70;;
10902;SDS011;5504;47.312;11.060;2022-11-09T12:24:27;2.30;;;1.60;;
10902;SDS011;5504;47.312;11.060;2022-11-09T12:32:49;1.97;;;1.30;;
10902;SDS011;5504;47.312;11.060;2022-11-09T12:35:44;1.57;;;1.20;;
10902;SDS011;5504;47.312;11.060;2022-11-09T12:41:03;1.70;;;1.50;;
10902;SDS011;5504;47.312;11.060;2022-11-09T12:46:34;2.13;;;1.53;;
10902;SDS011;5504;47.312;11.060;2022-11-09T12:49:04;3.43;;;1.80;;
10902;SDS011;5504;47.312;11.060;2022-11-09T12:51:30;2.53;;;1.80;;
10902;SDS011;5504;47.312;11.060;2022-11-09T12:53:58;2.40;;;1.80;;
10902;SDS011;5504;47.312;11.060;2022-11-09T12:56:34;2.50;;;1.47;;
10902;SDS011;5504;47.312;11.060;2022-11-09T13:01:53;2.17;;;1.57;;
10902;SDS011;5504;47.312;11.060;2022-11-09T13:04:22;1.60;;;1.37;;
10902;SDS011;5504;47.312;11.060;2022-11-09T13:09:37;1.73;;;1.10;;
10902;SDS011;5504;47.312;11.060;2022-11-09T13:12:18;1.13;;;1.10;;
10902;SDS011;5504;47.312;11.060;2022-11-09T13:14:53;1.83;;;1.07;;
10902;SDS011;5504;47.312;11.060;2022-11-09T13:19:49;1.23;;;1.13;;
10902;SDS011;5504;47.312;11.060;2022-11-09T13:24:52;1.30;;;1.20;;
10902;SDS011;5504;47.312;11.060;2022-11-09T13:27:47;2.13;;;1.30;;
10902;SDS011;5504;47.312;11.060;2022-11-09T13:40:47;2.33;;;1.60;;
10902;SDS011;5504;47.312;11.060;2022-11-09T13:43:20;2.57;;;1.40;;
10902;SDS011;5504;47.312;11.060;2022-11-09T13:45:48;3.47;;;1.40;;
10902;SDS011;5504;47.312;11.060;2022-11-09T13:50:49;3.20;;;1.10;;
10902;SDS011;5504;47.312;11.060;2022-11-09T13:56:24;1.60;;;1.20;;
10902;SDS011;5504;47.312;11.060;2022-11-09T14:01:35;2.13;;;1.40;;
10902;SDS011;5504;47.312;11.060;2022-11-09T14:04:36;1.47;;;1.30;;
10902;SDS011;5504;47.312;11.060;2022-11-09T14:09:38;3.67;;;1.60;;
10902;SDS011;5504;47.312;11.060;2022-11-09T14:12:43;1.80;;;1.30;;
10902;SDS011;5504;47.312;11.060;2022-11-09T14:20:52;1.87;;;1.30;;
10902;SDS011;5504;47.312;11.060;2022-11-09T14:23:38;2.23;;;1.50;;
10902;SDS011;5504;47.312;11.060;2022-11-09T14:26:07;2.07;;;1.57;;
10902;SDS011;5504;47.312;11.060;2022-11-09T14:28:39;3.93;;;1.43;;
10902;SDS011;5504;47.312;11.060;2022-11-09T14:31:05;2.27;;;1.20;;
10902;SDS011;5504;47.312;11.060;2022-11-09T14:33:43;1.03;;;1.00;;
10902;SDS011;5504;47.312;11.060;2022-11-09T14:36:23;1.20;;;1.10;;
10902;SDS011;5504;47.312;11.060;2022-11-09T14:38:50;2.57;;;1.70;;
10902;SDS011;5504;47.312;11.060;2022-11-09T14:41:19;2.30;;;1.80;;
10902;SDS011;5504;47.312;11.060;2022-11-09T14:43:51;2.23;;;1.67;;
10902;SDS011;5504;47.312;11.060;2022-11-09T14:46:20;4.00;;;2.00;;
10902;SDS011;5504;47.312;11.060;2022-11-09T14:51:17;3.07;;;1.50;;
10902;SDS011;5504;47.312;11.060;2022-11-09T14:53:45;2.80;;;1.60;;
10902;SDS011;5504;47.312;11.060;2022-11-09T14:56:14;2.23;;;1.30;;
10902;SDS011;5504;47.312;11.060;2022-11-09T14:58:42;1.60;;;1.03;;
10902;SDS011;5504;47.312;11.060;2022-11-09T15:01:18;3.00;;;2.27;;
10902;SDS011;5504;47.312;11.060;2022-11-09T15:04:05;6.97;;;2.90;;
10902;SDS011;5504;47.312;11.060;2022-11-09T15:06:33;5.40;;;2.80;;
10902;SDS011;5504;47.312;11.060;2022-11-09T15:09:01;4.47;;;2.47;;
10902;SDS011;5504;47.312;11.060;2022-11-09T15:11:30;3.23;;;2.27;;
10902;SDS011;5504;47.312;11.060;2022-11-09T15:16:41;3.13;;;2.20;;
10902;SDS011;5504;47.312;11.060;2022-11-09T15:19:27;2.50;;;2.13;;
10902;SDS011;5504;47.312;11.060;2022-11-09T15:21:56;7.40;;;4.13;;
10902;SDS011;5504;47.312;11.060;2022-11-09T15:24:23;23.43;;;19.70;;
10902;SDS011;5504;47.312;11.060;2022-11-09T15:26:51;13.20;;;7.57;;
10902;SDS011;5504;47.312;11.060;2022-11-09T15:32:05;6.73;;;4.27;;
10902;SDS011;5504;47.312;11.060;2022-11-09T15:34:36;4.37;;;2.07;;
10902;SDS011;5504;47.312;11.060;2022-11-09T15:40:12;3.47;;;1.80;;
10902;SDS011;5504;47.312;11.060;2022-11-09T15:42:39;3.33;;;1.80;;
10902;SDS011;5504;47.312;11.060;2022-11-09T15:45:05;2.97;;;1.60;;
10902;SDS011;5504;47.312;11.060;2022-11-09T15:47:32;3.57;;;1.90;;
10902;SDS011;5504;47.312;11.060;2022-11-09T15:50:00;3.30;;;2.30;;
10902;SDS011;5504;47.312;11.060;2022-11-09T15:52:46;6.10;;;3.60;;
10902;SDS011;5504;47.312;11.060;2022-11-09T15:55:17;4.97;;;4.30;;
10902;SDS011;5504;47.312;11.060;2022-11-09T15:57:46;11.13;;;10.00;;
10902;SDS011;5504;47.312;11.060;2022-11-09T16:00:14;3.43;;;3.13;;
10902;SDS011;5504;47.312;11.060;2022-11-09T16:02:41;5.60;;;3.00;;
10902;SDS011;5504;47.312;11.060;2022-11-09T16:05:07;4.30;;;3.90;;
10902;SDS011;5504;47.312;11.060;2022-11-09T16:07:33;5.60;;;4.57;;
10902;SDS011;5504;47.312;11.060;2022-11-09T16:09:59;5.20;;;4.10;;
10902;SDS011;5504;47.312;11.060;2022-11-09T16:12:25;3.87;;;3.37;;
10902;SDS011;5504;47.312;11.060;2022-11-09T16:14:50;4.07;;;3.27;;
10902;SDS011;5504;47.312;11.060;2022-11-09T16:17:16;5.57;;;3.83;;
10902;SDS011;5504;47.312;11.060;2022-11-09T16:19:42;5.40;;;4.90;;
10902;SDS011;5504;47.312;11.060;2022-11-09T16:22:09;6.63;;;5.30;;
10902;SDS011;5504;47.312;11.060;2022-11-09T16:24:36;5.00;;;4.17;;
10902;SDS011;5504;47.312;11.060;2022-11-09T16:27:01;4.97;;;3.33;;
10902;SDS011;5504;47.312;11.060;2022-11-09T16:29:29;4.60;;;4.13;;
10902;SDS011;5504;47.312;11.060;2022-11-09T16:31:57;4.03;;;3.37;;
10902;SDS011;5504;47.312;11.060;2022-11-09T16:34:24;12.10;;;10.90;;
10902;SDS011;5504;47.312;11.060;2022-11-09T16:36:50;19.03;;;17.13;;
10902;SDS011;5504;47.312;11.060;2022-11-09T16:39:16;10.80;;;9.80;;
10902;SDS011;5504;47.312;11.060;2022-11-09T16:41:46;6.43;;;4.10;;
10902;SDS011;5504;47.312;11.060;2022-11-09T16:44:13;4.23;;;2.57;;
10902;SDS011;5504;47.312;11.060;2022-11-09T16:46:42;3.23;;;2.50;;
10902;SDS011;5504;47.312;11.060;2022-11-09T16:49:09;4.13;;;2.40;;
10902;SDS011;5504;47.312;11.060;2022-11-09T16:51:35;13.03;;;9.63;;
10902;SDS011;5504;47.312;11.060;2022-11-09T16:54:00;14.33;;;10.00;;
10902;SDS011;5504;47.312;11.060;2022-11-09T16:56:26;7.13;;;5.20;;
10902;SDS011;5504;47.312;11.060;2022-11-09T16:58:52;6.93;;;4.50;;
10902;SDS011;5504;47.312;11.060;2022-11-09T17:01:18;8.17;;;5.47;;
10902;SDS011;5504;47.312;11.060;2022-11-09T17:03:46;5.00;;;3.40;;
10902;SDS011;5504;47.312;11.060;2022-11-09T17:06:11;7.03;;;3.80;;
10902;SDS011;5504;47.312;11.060;2022-11-09T17:08:38;6.27;;;3.47;;
10902;SDS011;5504;47.312;11.060;2022-11-09T17:11:08;3.60;;;3.30;;